Time;durP1;ratioP1;P1;durP2;ratioP2;P2;SDS_P1;SDS_P2;PMS_P1;PMS_P2;Temp;Humidity;BMP_temperature;BMP_pressure;BME280_temperature;BME280_humidity;BME280_pressure;Samples;Min_cycle;Max_cycle;Signal;HPM_P1;HPM_P2
2022/07/24 06:10:12;;;;;;;17.48;8.73;;;;;;;21.28;58.54;96946.16;2089248;27;20550;-66
2022/07/24 06:11:17;;;;;;;15.40;8.45;;;;;;;21.39;58.19;96942.63;2077089;28;20341;-66
2022/07/24 06:12:19;;;;;;;14.50;9.13;;;;;;;21.49;57.71;96941.69;2064667;27;20581;-66
2022/07/24 06:13:22;;;;;;;13.82;8.70;;;;;;;21.60;57.25;96946.16;2057163;28;20657;-69
2022/07/24 06:14:25;;;;;;;24.52;7.90;;;;;;;21.62;57.33;96932.72;2056931;28;20225;-68
2022/07/24 06:15:26;;;;;;;13.95;9.05;;;;;;;21.76;56.69;96942.19;2056562;28;20199;-67
2022/07/24 06:16:28;;;;;;;18.13;7.40;;;;;;;21.87;56.23;96946.59;2057640;28;20198;-67
2022/07/24 06:17:29;;;;;;;13.25;7.53;;;;;;;21.92;56.73;96939.88;2070826;28;20616;-67
2022/07/24 06:18:31;;;;;;;14.63;8.45;;;;;;;21.91;55.97;96943.50;2073449;28;20197;-67
2022/07/24 06:19:32;;;;;;;10.25;7.32;;;;;;;22.00;56.33;96948.06;2069607;28;20205;-69
2022/07/24 06:20:34;;;;;;;10.75;7.90;;;;;;;22.16;56.10;96936.09;2072885;28;20223;-67
2022/07/24 06:21:35;;;;;;;12.60;8.20;;;;;;;22.28;55.25;96937.69;2073498;28;20244;-67
2022/07/24 06:22:36;;;;;;;14.93;8.15;;;;;;;22.29;55.12;96941.16;2070024;28;20248;-68
2022/07/24 06:23:38;;;;;;;12.60;7.22;;;;;;;22.35;55.03;96937.97;2072231;28;20200;-67
2022/07/24 07:00:12;;;;;;;12.90;6.43;;;;;;;25.09;43.97;96937.44;2083271;28;20560;-67
2022/07/24 07:01:13;;;;;;;10.90;6.38;;;;;;;25.17;43.62;96934.00;2093135;28;20262;-68
2022/07/24 07:02:15;;;;;;;10.23;6.22;;;;;;;25.09;42.90;96940.13;2087634;28;20260;-67
2022/07/24 07:03:18;;;;;;;10.10;6.80;;;;;;;25.12;42.97;96944.31;2073095;28;20189;-67
2022/07/24 07:04:19;;;;;;;8.82;6.18;;;;;;;25.08;43.06;96942.97;2071779;28;20198;-68
2022/07/24 07:05:21;;;;;;;10.35;6.43;;;;;;;25.07;43.19;96935.94;2072443;28;20198;-67
2022/07/24 07:06:22;;;;;;;13.82;7.57;;;;;;;25.12;43.10;96944.31;2073329;28;20193;-68
2022/07/24 07:07:24;;;;;;;13.63;6.35;;;;;;;25.22;43.27;96942.41;2068120;28;20225;-68
2022/07/24 07:08:26;;;;;;;10.70;6.97;;;;;;;25.25;43.85;96941.25;2057559;28;20199;-66
2022/07/24 07:09:27;;;;;;;11.05;6.13;;;;;;;25.38;43.29;96938.22;2055735;28;20210;-66
2022/07/24 07:10:29;;;;;;;46.17;28.90;;;;;;;25.52;42.83;96944.84;2065665;28;20217;-67
2022/07/24 07:11:30;;;;;;;29.92;20.98;;;;;;;25.50;43.29;96946.84;2064380;28;20198;-66
2022/07/24 07:12:32;;;;;;;9.85;6.90;;;;;;;25.38;43.28;96935.53;2064279;28;20749;-66
2022/07/24 07:13:40;;;;;;;14.48;7.57;;;;;;;25.55;42.86;96939.22;2065308;28;20201;-66
2022/07/24 07:14:42;;;;;;;10.80;7.25;;;;;;;25.64;42.65;96918.72;2064488;28;20497;-67
2022/07/24 07:15:43;;;;;;;10.10;6.30;;;;;;;25.40;43.34;96938.91;2067676;28;20197;-66
2022/07/24 07:16:45;;;;;;;10.52;6.55;;;;;;;25.39;45.14;96939.91;2068192;28;20681;-66
2022/07/24 07:17:46;;;;;;;12.00;7.43;;;;;;;25.72;43.60;96940.97;2064892;28;20198;-66
2022/07/24 07:18:49;;;;;;;9.93;6.20;;;;;;;25.70;43.05;96945.66;2067467;28;20260;-66
2022/07/24 07:19:50;;;;;;;13.90;7.20;;;;;;;25.67;43.23;96937.94;2064276;28;20219;-66
2022/07/24 07:50:28;;;;;;;11.77;5.82;;;;;;;27.01;39.87;96927.69;2085412;28;20942;-66
2022/07/24 07:51:29;;;;;;;12.30;7.30;;;;;;;27.20;39.92;96939.94;2083066;28;20648;-66
2022/07/24 07:52:31;;;;;;;11.35;6.88;;;;;;;27.05;39.89;96931.72;2073007;28;20751;-66
2022/07/24 07:53:33;;;;;;;9.70;6.18;;;;;;;27.40;39.60;96937.81;2071319;28;20194;-65
2022/07/24 07:54:34;;;;;;;17.45;7.28;;;;;;;27.75;39.11;96938.44;2072522;28;20199;-66
2022/07/24 07:55:36;;;;;;;9.63;7.55;;;;;;;27.52;40.35;96936.44;2073932;28;20224;-66
2022/07/24 07:56:37;;;;;;;8.18;5.50;;;;;;;27.70;38.55;96938.94;2075325;28;20193;-64
2022/07/24 07:57:41;;;;;;;15.75;11.10;;;;;;;27.86;37.81;96935.41;2070701;28;20226;-65
2022/07/24 07:59:02;;;;;;;14.20;7.90;;;;;;;27.78;37.86;96940.81;2073423;28;20221;-65
2022/07/24 08:00:05;;;;;;;12.23;8.57;;;;;;;27.76;38.37;96942.81;2074459;28;20625;-65
2022/07/24 08:01:09;;;;;;;22.45;6.72;;;;;;;27.57;38.39;96944.00;2076871;28;20203;-64
2022/07/24 08:02:11;;;;;;;10.88;6.63;;;;;;;27.42;36.89;96938.47;2069581;28;20220;-66
2022/07/24 08:03:12;;;;;;;10.32;6.10;;;;;;;27.17;37.39;96941.13;2072021;28;20205;-66
2022/07/24 08:04:14;;;;;;;9.00;6.25;;;;;;;26.95;37.48;96936.41;2072289;28;20658;-67
2022/07/24 08:05:16;;;;;;;10.50;5.97;;;;;;;27.07;37.51;96937.75;2076089;28;20212;-66
2022/07/24 08:06:17;;;;;;;11.45;6.50;;;;;;;26.91;38.01;96940.41;2071998;28;20197;-66
2022/07/24 08:07:24;;;;;;;13.02;7.65;;;;;;;26.98;37.72;96930.69;2071904;28;20218;-66
2022/07/24 08:08:26;;;;;;;11.27;6.05;;;;;;;27.03;38.35;96933.72;2073405;28;20647;-66
2022/07/24 08:09:28;;;;;;;15.23;5.93;;;;;;;26.93;38.52;96939.25;2073670;28;20672;-66
2022/07/24 08:10:30;;;;;;;9.27;5.35;;;;;;;26.94;38.11;96929.34;2075918;28;20735;-67
2022/07/24 08:11:31;;;;;;;10.45;5.60;;;;;;;27.03;38.57;96931.03;2071988;28;20190;-66
2022/07/24 08:12:33;;;;;;;8.85;6.28;;;;;;;27.13;38.49;96939.75;2073152;28;20256;-66
2022/07/24 08:13:34;;;;;;;9.75;6.35;;;;;;;27.23;38.75;96934.25;2072810;28;20668;-66
2022/07/24 08:14:36;;;;;;;14.82;6.45;;;;;;;27.33;38.54;96937.59;2074848;28;20758;-67
2022/07/24 08:15:38;;;;;;;9.30;6.15;;;;;;;27.52;39.42;96933.75;2073856;28;20592;-67
2022/07/24 08:16:40;;;;;;;10.13;6.72;;;;;;;27.93;39.45;96934.72;2074326;28;20206;-66
2022/07/24 08:17:41;;;;;;;8.93;6.18;;;;;;;27.85;38.63;96949.00;2070977;28;20237;-67
2022/07/24 08:18:43;;;;;;;11.40;6.00;;;;;;;28.06;39.21;96945.81;2074340;28;20197;-67
2022/07/24 08:19:51;;;;;;;9.75;5.80;;;;;;;28.30;38.91;96934.16;2072843;28;20204;-67
2022/07/24 08:20:53;;;;;;;11.82;5.85;;;;;;;28.69;38.32;96935.16;2068767;28;20208;-67
2022/07/24 08:21:54;;;;;;;10.82;6.55;;;;;;;28.97;37.73;96937.38;2070438;28;20202;-66
2022/07/24 08:22:56;;;;;;;12.85;6.85;;;;;;;29.03;36.09;96931.28;2071764;28;20672;-67
2022/07/24 08:23:59;;;;;;;8.55;6.68;;;;;;;28.95;36.74;96931.31;2070880;28;20208;-67
2022/07/24 08:25:01;;;;;;;8.73;5.90;;;;;;;29.05;36.41;96934.63;2072476;28;20202;-67
2022/07/24 08:26:03;;;;;;;9.48;6.07;;;;;;;29.01;36.86;96933.28;2074144;28;20201;-66
2022/07/24 08:51:33;;;;;;;15.60;5.82;;;;;;;29.59;36.43;96932.91;2102970;27;20567;-65
2022/07/24 08:52:35;;;;;;;10.05;5.75;;;;;;;29.69;36.45;96929.94;2080768;28;20715;-64
2022/07/24 08:53:44;;;;;;;12.32;6.40;;;;;;;29.97;36.40;96922.94;2076947;28;20196;-65
2022/07/24 08:54:46;;;;;;;9.30;6.45;;;;;;;30.40;35.83;96933.06;2079943;28;20200;-64
2022/07/24 08:55:48;;;;;;;8.57;5.97;;;;;;;30.52;35.97;96924.53;2081537;28;20656;-65
2022/07/24 08:56:50;;;;;;;7.95;6.10;;;;;;;30.54;35.62;96920.63;2083094;28;20204;-65
2022/07/24 08:57:51;;;;;;;8.73;6.57;;;;;;;30.57;35.42;96931.03;2090042;28;20196;-65
2022/07/24 08:58:53;;;;;;;9.30;6.20;;;;;;;30.66;35.85;96939.00;2090694;28;20435;-64
2022/07/24 08:59:54;;;;;;;8.47;6.57;;;;;;;30.75;35.09;96933.34;2090978;28;21143;-65
2022/07/24 09:00:56;;;;;;;9.80;5.80;;;;;;;30.66;35.79;96931.75;2090507;28;20827;-66
2022/07/24 09:01:57;;;;;;;8.93;6.73;;;;;;;30.76;35.26;96926.88;2091821;28;20431;-65
2022/07/24 09:02:59;;;;;;;7.80;6.20;;;;;;;30.20;34.88;96931.97;2093349;28;20429;-65
2022/07/24 09:04:00;;;;;;;10.50;5.93;;;;;;;29.76;36.72;96926.34;2093518;28;20426;-65
2022/07/24 09:05:03;;;;;;;12.30;6.10;;;;;;;30.35;35.91;96935.50;2094129;28;20440;-66
2022/07/24 09:06:07;;;;;;;8.43;6.30;;;;;;;30.84;35.10;96935.91;2093141;28;20431;-66
2022/07/24 09:07:12;;;;;;;11.80;6.77;;;;;;;31.25;35.22;96936.16;2091314;28;20459;-67
2022/07/24 09:08:16;;;;;;;9.10;6.73;;;;;;;30.98;33.98;96936.88;2091382;28;21158;-66
2022/07/24 09:09:21;;;;;;;11.60;7.30;;;;;;;30.00;34.70;96937.91;2091306;28;20420;-66
2022/07/24 09:10:29;;;;;;;8.13;6.23;;;;;;;29.93;36.09;96935.09;2091958;28;20421;-66
2022/07/24 09:11:36;;;;;;;11.47;8.47;;;;;;;30.64;35.42;96933.81;2089493;28;20453;-66
2022/07/24 09:12:45;;;;;;;26.53;20.77;;;;;;;31.20;34.11;96929.69;2087252;28;20464;-66
2022/07/24 09:15:12;;;;;;;13.10;10.10;;;;;;;31.82;33.39;96935.41;2089945;28;20417;-66
2022/07/24 09:16:22;;;;;;;8.77;6.10;;;;;;;31.45;32.87;96926.56;2087280;28;20438;-66
2022/07/24 09:17:24;;;;;;;8.00;6.00;;;;;;;30.88;33.87;96932.66;2089111;28;20506;-66
2022/07/24 09:18:30;;;;;;;10.30;6.83;;;;;;;30.81;34.95;96929.03;2090569;28;20475;-66
2022/07/24 09:19:45;;;;;;;10.00;6.20;;;;;;;30.88;34.57;96934.47;2091977;28;20432;-65
2022/07/24 09:20:47;;;;;;;11.50;6.77;;;;;;;30.38;34.19;96929.72;2093706;28;20424;-66
2022/07/24 09:21:49;;;;;;;8.80;6.33;;;;;;;29.96;35.06;96928.53;2091353;28;20432;-66
2022/07/24 09:22:51;;;;;;;11.83;6.87;;;;;;;29.07;36.90;96935.28;2089537;28;20977;-66
2022/07/24 09:23:52;;;;;;;6.27;5.40;;;;;;;29.46;36.63;96938.91;2087898;28;20433;-66
2022/07/24 09:25:26;;;;;;;10.87;6.30;;;;;;;30.23;34.99;96936.97;2093234;28;20432;-65
2022/07/24 09:26:45;;;;;;;10.73;5.80;;;;;;;30.15;35.56;96927.13;2091446;28;20938;-64
2022/07/24 09:27:49;;;;;;;8.03;5.70;;;;;;;30.28;35.29;96934.56;2091387;28;21179;-64
2022/07/24 09:28:53;;;;;;;11.80;5.60;;;;;;;30.20;34.77;96940.88;2092676;28;20921;-65
2022/07/24 09:29:54;;;;;;;11.17;6.27;;;;;;;30.24;34.43;96938.66;2092565;28;20424;-65
2022/07/24 09:31:02;;;;;;;9.07;5.67;;;;;;;30.41;33.63;96929.34;2092664;28;20454;-64
2022/07/24 09:32:04;;;;;;;11.33;6.30;;;;;;;30.36;33.68;96931.78;2092340;28;20453;-65
2022/07/24 09:33:13;;;;;;;8.63;6.40;;;;;;;30.21;34.24;96933.66;2090396;28;20457;-61
2022/07/24 09:34:14;;;;;;;9.40;6.20;;;;;;;30.13;34.47;96935.41;2090218;28;20440;-61
2022/07/24 09:35:16;;;;;;;9.10;6.67;;;;;;;30.12;35.13;96930.22;2088585;28;20927;-61
2022/07/24 09:36:19;;;;;;;9.73;6.77;;;;;;;29.96;34.98;96933.91;2087162;28;20464;-61
2022/07/24 09:37:22;;;;;;;7.27;5.70;;;;;;;29.85;35.71;96928.94;2089177;28;20452;-61
2022/07/24 09:38:24;;;;;;;7.43;5.77;;;;;;;29.87;35.44;96943.06;2092384;28;20420;-62
2022/07/24 09:39:27;;;;;;;13.73;5.70;;;;;;;29.92;35.48;96933.44;2088751;28;20426;-62
2022/07/24 09:40:54;;;;;;;9.90;6.93;;;;;;;29.42;35.54;96934.88;2090270;28;20766;-61
2022/07/24 09:41:57;;;;;;;12.77;9.70;;;;;;;29.42;35.85;96929.50;2089416;28;21099;-62
2022/07/24 09:43:19;;;;;;;16.93;11.70;;;;;;;29.37;36.50;96935.44;2089526;28;20939;-62
2022/07/24 09:44:22;;;;;;;14.03;9.63;;;;;;;29.24;36.36;96936.00;2091588;28;20424;-63
2022/07/24 09:45:24;;;;;;;47.67;39.57;;;;;;;29.22;36.71;96929.97;2090109;28;20536;-62
2022/07/24 09:46:26;;;;;;;19.53;14.93;;;;;;;29.16;36.12;96931.50;2092963;28;20424;-63
2022/07/24 09:47:30;;;;;;;14.30;12.33;;;;;;;29.08;36.18;96928.88;2085668;28;20518;-61
2022/07/24 10:17:42;;;;;;;16.90;12.20;;;;;;;31.02;33.04;96922.84;2120597;27;21127;-63
2022/07/24 10:18:51;;;;;;;33.60;20.42;;;;;;;31.22;31.80;96911.44;2114738;28;20194;-63
2022/07/24 10:19:52;;;;;;;8.30;6.78;;;;;;;31.59;31.27;96915.72;2116187;28;20225;-62
2022/07/24 10:21:06;;;;;;;9.40;6.55;;;;;;;31.21;32.08;96916.00;2118881;28;20227;-63
2022/07/24 10:22:44;;;;;;;9.30;5.77;;;;;;;31.28;32.21;96913.34;2116291;28;20592;-63
2022/07/24 10:24:04;;;;;;;6.17;5.10;;;;;;;31.91;31.16;96916.16;2114921;28;20431;-65
2022/07/24 10:25:08;;;;;;;8.30;5.60;;;;;;;32.33;30.17;96924.34;2116761;28;20434;-64
2022/07/24 10:26:23;;;;;;;8.37;5.80;;;;;;;32.32;30.09;96914.56;2114183;28;20427;-64
2022/07/24 10:27:34;;;;;;;7.87;5.47;;;;;;;32.64;30.27;96916.78;2112613;28;20451;-64
2022/07/24 10:28:41;;;;;;;8.13;6.27;;;;;;;32.62;29.98;96919.69;2114005;28;20461;-63
2022/07/24 10:29:45;;;;;;;8.10;5.60;;;;;;;32.54;30.43;96914.44;2113244;28;20426;-63
2022/07/24 10:30:47;;;;;;;10.30;5.90;;;;;;;32.78;29.23;96909.56;2108955;28;20424;-65
2022/07/24 10:31:52;;;;;;;7.60;6.07;;;;;;;31.64;30.82;96909.72;2108416;28;20422;-64
2022/07/24 10:32:54;;;;;;;12.10;6.77;;;;;;;31.21;31.74;96912.44;2113945;28;20430;-64
2022/07/24 10:33:58;;;;;;;10.50;5.33;;;;;;;31.38;31.44;96907.66;2103669;28;20431;-64
2022/07/24 10:35:14;;;;;;;7.03;4.90;;;;;;;31.56;31.20;96909.84;2104642;28;20921;-64
2022/07/24 10:36:29;;;;;;;7.10;5.40;;;;;;;31.85;31.11;96908.03;2115856;28;20430;-64
2022/07/24 10:37:38;;;;;;;7.23;6.07;;;;;;;31.82;31.51;96909.25;2112993;28;21066;-64
2022/07/24 10:38:44;;;;;;;6.30;5.40;;;;;;;31.43;31.49;96908.72;2113691;28;20782;-65
2022/07/24 10:39:49;;;;;;;7.47;5.37;;;;;;;31.27;31.60;96907.16;2111097;28;20483;-64
2022/07/24 10:40:54;;;;;;;7.60;5.27;;;;;;;31.54;31.23;96906.50;2115451;28;20931;-64
2022/07/24 10:42:01;;;;;;;7.80;5.37;;;;;;;31.50;31.90;96913.34;2117442;28;20445;-64
2022/07/24 10:43:05;;;;;;;7.50;5.20;;;;;;;31.56;31.02;96907.16;2114396;28;20415;-63
2022/07/24 10:44:17;;;;;;;8.83;5.70;;;;;;;30.72;31.61;96909.44;2115528;28;20430;-64
2022/07/24 10:45:19;;;;;;;8.77;5.50;;;;;;;31.50;31.68;96907.94;2114330;28;20423;-65
2022/07/24 10:46:20;;;;;;;8.80;5.00;;;;;;;32.26;30.94;96904.56;2113838;28;20426;-64
2022/07/24 10:47:25;;;;;;;6.40;4.90;;;;;;;32.95;29.68;96905.47;2114904;28;20447;-65
2022/07/24 10:48:30;;;;;;;6.57;5.33;;;;;;;33.24;29.24;96903.41;2113311;28;20950;-65
2022/07/24 10:49:38;;;;;;;6.60;5.87;;;;;;;32.91;28.77;96906.91;2115294;28;20510;-65
2022/07/24 10:50:56;;;;;;;6.70;4.90;;;;;;;31.70;31.16;96906.25;2112816;28;20435;-64
2022/07/24 10:51:59;;;;;;;9.50;5.63;;;;;;;32.38;29.55;96896.72;2117638;28;20434;-64
2022/07/24 10:53:20;;;;;;;9.13;5.30;;;;;;;33.15;28.85;96900.06;2114129;28;20789;-65
2022/07/24 10:54:22;;;;;;;6.53;5.50;;;;;;;32.45;29.95;96908.38;2114702;28;20411;-64
2022/07/24 10:55:31;;;;;;;7.17;5.03;;;;;;;31.31;31.07;96904.88;2115286;28;20656;-64
2022/07/24 10:56:40;;;;;;;10.37;5.23;;;;;;;32.29;29.94;96903.31;2111590;28;20422;-65
2022/07/24 10:57:46;;;;;;;7.20;5.83;;;;;;;32.32;29.85;96892.94;2112997;28;20452;-64
2022/07/24 10:58:59;;;;;;;8.90;6.10;;;;;;;33.07;29.37;96891.34;2115811;28;20436;-65
2022/07/24 11:00:20;;;;;;;11.27;5.20;;;;;;;33.75;28.26;96906.56;2108372;28;20428;-64
2022/07/24 11:01:53;;;;;;;8.73;6.10;;;;;;;33.56;27.86;96905.53;2109516;28;20421;-64
2022/07/24 11:02:57;;;;;;;9.03;5.30;;;;;;;33.53;28.60;96899.53;2107079;28;20437;-64
2022/07/24 11:04:01;;;;;;;9.83;5.50;;;;;;;34.08;27.86;96898.44;2108348;28;20439;-64
2022/07/24 11:05:30;;;;;;;6.23;5.17;;;;;;;34.19;27.12;96902.34;2107235;28;20431;-65
2022/07/24 11:06:38;;;;;;;8.57;5.70;;;;;;;34.45;27.09;96897.91;2109692;28;21176;-65
2022/07/24 11:08:11;;;;;;;8.83;4.90;;;;;;;33.36;28.12;96890.16;2103888;28;21010;-65
2022/07/24 11:09:14;;;;;;;6.20;5.60;;;;;;;33.08;28.17;96896.53;2104336;28;20438;-64
2022/07/24 11:10:16;;;;;;;11.83;5.80;;;;;;;33.33;28.43;96893.25;2107857;28;20415;-64
2022/07/24 11:11:20;;;;;;;7.10;4.77;;;;;;;32.89;28.56;96890.06;2107698;28;20418;-65
2022/07/24 11:12:30;;;;;;;5.63;5.03;;;;;;;32.48;29.72;96890.94;2106803;28;20463;-65
2022/07/24 11:13:43;;;;;;;7.33;5.13;;;;;;;32.49;29.11;96890.72;2102845;28;20906;-65
2022/07/24 11:14:45;;;;;;;6.17;5.07;;;;;;;32.03;30.17;96889.44;2108323;28;20839;-65
2022/07/24 11:16:10;;;;;;;8.13;6.23;;;;;;;31.83;30.08;96888.50;2107432;28;20518;-64
2022/07/24 11:17:39;;;;;;;6.60;5.63;;;;;;;31.97;29.92;96886.72;2094424;28;20468;-65
2022/07/24 11:19:01;;;;;;;7.00;5.10;;;;;;;31.98;29.47;96889.19;2108022;28;20427;-64
2022/07/24 11:20:05;;;;;;;6.20;5.03;;;;;;;31.64;29.90;96882.75;2105342;28;20847;-64
2022/07/24 11:21:08;;;;;;;8.17;5.23;;;;;;;31.91;29.61;96881.06;2104008;28;20435;-64
2022/07/24 11:22:11;;;;;;;6.33;5.20;;;;;;;31.75;30.09;96871.41;2107369;28;20472;-64
2022/07/24 11:23:19;;;;;;;8.80;5.53;;;;;;;31.49;30.69;96881.97;2106827;28;20945;-64
2022/07/24 11:24:24;;;;;;;5.83;4.93;;;;;;;31.95;29.33;96880.66;2106917;28;20471;-64
2022/07/24 11:25:27;;;;;;;7.90;5.17;;;;;;;32.09;29.47;96882.44;2101976;28;20412;-64
2022/07/24 11:26:32;;;;;;;8.90;6.00;;;;;;;32.49;28.99;96881.78;2106425;28;20917;-65
2022/07/24 11:27:46;;;;;;;6.70;5.30;;;;;;;32.31;29.43;96866.16;2096797;28;20489;-65
2022/07/24 11:29:30;;;;;;;13.23;5.43;;;;;;;32.49;29.01;96881.78;2093850;28;20920;-64
2022/07/24 11:30:31;;;;;;;7.60;5.50;;;;;;;31.63;30.08;96878.41;2100014;28;20458;-64
2022/07/24 11:31:37;;;;;;;10.23;5.77;;;;;;;32.20;29.67;96868.38;2098645;28;20424;-65
2022/07/24 11:32:40;;;;;;;8.53;6.37;;;;;;;31.78;29.90;96872.06;2098246;28;20463;-65
2022/07/24 11:33:42;;;;;;;7.37;5.40;;;;;;;32.61;28.99;96873.94;2102824;28;20488;-64
2022/07/24 11:34:46;;;;;;;6.90;5.33;;;;;;;33.00;28.63;96869.69;2099858;28;20435;-65
2022/07/24 11:35:48;;;;;;;7.40;5.63;;;;;;;33.63;27.94;96868.50;2098526;28;20432;-64
2022/07/24 11:36:51;;;;;;;7.10;5.50;;;;;;;33.24;28.34;96867.44;2095023;28;20432;-64
2022/07/24 11:37:54;;;;;;;8.17;5.53;;;;;;;33.72;27.59;96866.41;2094595;28;20461;-64
2022/07/24 11:38:55;;;;;;;6.73;5.60;;;;;;;33.65;27.14;96866.38;2096588;28;20428;-65
2022/07/24 11:39:57;;;;;;;9.03;6.03;;;;;;;33.98;26.93;96862.81;2098247;28;20428;-64
2022/07/24 11:41:05;;;;;;;9.07;4.90;;;;;;;33.65;27.83;96860.97;2099628;28;20928;-64
2022/07/24 11:42:09;;;;;;;8.13;5.23;;;;;;;32.95;28.40;96861.34;2100949;28;20985;-64
2022/07/24 11:43:10;;;;;;;11.10;5.53;;;;;;;32.94;28.54;96855.13;2101109;28;20420;-66
2022/07/24 11:44:13;;;;;;;7.67;5.83;;;;;;;33.09;28.27;96856.81;2100316;28;20486;-66
2022/07/24 11:45:15;;;;;;;7.43;5.53;;;;;;;33.84;27.50;96864.75;2099897;28;20425;-66
2022/07/24 11:46:32;;;;;;;6.60;5.30;;;;;;;34.17;26.96;96853.81;2100443;28;20455;-66
2022/07/24 11:47:34;;;;;;;8.57;5.57;;;;;;;34.26;26.70;96854.41;2093372;28;20807;-66
2022/07/24 11:48:37;;;;;;;7.30;5.30;;;;;;;34.32;26.63;96848.13;2101238;28;20485;-66
2022/07/24 11:49:41;;;;;;;9.50;5.40;;;;;;;34.47;26.82;96855.16;2102021;28;20427;-66
2022/07/24 11:50:43;;;;;;;9.23;5.63;;;;;;;34.22;26.66;96849.63;2099494;28;20424;-66
2022/07/24 11:51:46;;;;;;;8.23;5.37;;;;;;;34.34;26.79;96832.50;2098119;28;20907;-66
2022/07/24 11:52:48;;;;;;;9.93;4.70;;;;;;;34.50;26.46;96846.63;2100599;28;20431;-66
2022/07/24 11:53:50;;;;;;;8.40;5.20;;;;;;;33.80;27.39;96849.91;2100409;28;21368;-66
2022/07/24 11:54:55;;;;;;;7.50;5.83;;;;;;;32.93;29.00;96841.81;2096701;28;20443;-66
2022/07/24 11:56:03;;;;;;;8.03;5.60;;;;;;;33.07;28.45;96831.84;2096684;28;20759;-66
2022/07/24 11:57:15;;;;;;;9.10;5.37;;;;;;;32.10;29.15;96835.50;2102648;28;20467;-67
2022/07/24 11:58:39;;;;;;;8.10;5.30;;;;;;;31.86;30.47;96837.66;2103289;28;20426;-66
2022/07/24 11:59:40;;;;;;;5.77;4.90;;;;;;;31.86;30.08;96837.66;2103973;28;20428;-66
2022/07/24 12:00:42;;;;;;;10.53;5.70;;;;;;;31.81;29.97;96834.72;2096211;28;20429;-66
2022/07/24 12:01:43;;;;;;;7.50;5.50;;;;;;;32.16;29.68;96833.84;2097615;28;20428;-66
2022/07/24 12:02:48;;;;;;;16.00;5.67;;;;;;;32.83;29.29;96836.81;2099492;28;20512;-66
2022/07/24 12:03:51;;;;;;;6.20;4.57;;;;;;;32.86;28.68;96833.69;2100903;28;20432;-66
2022/07/24 12:04:53;;;;;;;6.43;5.50;;;;;;;33.86;27.92;96835.56;2101593;28;20436;-67
2022/07/24 12:05:54;;;;;;;12.63;5.53;;;;;;;33.46;28.18;96822.91;2095618;28;21137;-66
2022/07/24 12:06:56;;;;;;;11.80;5.00;;;;;;;33.66;28.35;96827.44;2098252;28;20434;-66
2022/07/24 12:08:00;;;;;;;9.70;5.70;;;;;;;34.00;27.85;96837.22;2100628;28;20424;-66
2022/07/24 12:09:08;;;;;;;4.93;4.00;;;;;;;33.69;27.88;96836.00;2102671;28;20916;-66
2022/07/24 12:10:09;;;;;;;7.07;5.70;;;;;;;33.73;27.98;96838.28;2103630;28;20842;-67
2022/07/24 12:11:11;;;;;;;7.00;4.30;;;;;;;33.89;27.66;96837.00;2100883;28;20439;-67
2022/07/24 12:12:19;;;;;;;5.97;5.37;;;;;;;34.05;27.67;96841.97;2099795;28;20455;-67
2022/07/24 12:13:21;;;;;;;7.37;5.30;;;;;;;32.89;28.68;96826.00;2101669;28;20411;-66
2022/07/24 12:14:22;;;;;;;5.20;4.47;;;;;;;32.78;28.91;96829.31;2104069;28;20427;-66
2022/07/24 12:15:25;;;;;;;5.73;4.80;;;;;;;31.72;29.99;96825.94;2098721;28;20423;-66
2022/07/24 12:16:31;;;;;;;9.13;5.30;;;;;;;31.29;30.75;96830.56;2098661;28;20423;-66
2022/07/24 12:17:35;;;;;;;8.03;5.60;;;;;;;32.06;29.83;96818.00;2097660;28;20987;-66
2022/07/24 12:18:37;;;;;;;5.80;4.67;;;;;;;33.01;28.97;96830.78;2098918;28;20419;-66
2022/07/24 12:19:38;;;;;;;5.60;4.80;;;;;;;33.69;28.22;96817.03;2098564;28;20436;-66
2022/07/24 12:20:42;;;;;;;8.20;5.77;;;;;;;33.97;27.23;96817.84;2100884;28;20891;-69
2022/07/24 12:21:45;;;;;;;10.17;6.60;;;;;;;34.55;26.78;96822.41;2094837;28;20437;-65
2022/07/24 12:22:47;;;;;;;11.70;8.93;;;;;;;34.91;26.68;96820.13;2096035;28;20446;-65
2022/07/24 12:23:49;;;;;;;22.53;18.67;;;;;;;35.39;25.61;96825.00;2098114;28;20424;-65
2022/07/24 12:24:52;;;;;;;26.87;22.70;;;;;;;35.68;25.11;96822.63;2088931;28;20928;-65
2022/07/24 12:25:54;;;;;;;11.13;8.63;;;;;;;35.47;25.53;96821.16;2092795;28;20449;-65
2022/07/24 12:26:58;;;;;;;9.63;5.30;;;;;;;35.51;25.61;96818.84;2101106;28;20421;-66
2022/07/24 12:28:05;;;;;;;6.50;5.50;;;;;;;36.05;24.93;96819.09;2099893;28;20447;-64
2022/07/24 12:29:11;;;;;;;8.67;5.07;;;;;;;35.79;25.04;96818.31;2099144;28;20423;-64
2022/07/24 12:30:26;;;;;;;6.33;5.47;;;;;;;35.37;25.04;96815.41;2101087;28;20433;-66
2022/07/24 12:31:27;;;;;;;8.40;5.30;;;;;;;34.47;26.30;96814.53;2102791;28;20430;-65
2022/07/24 12:32:29;;;;;;;6.03;5.13;;;;;;;34.12;26.69;96813.00;2100582;28;20455;-65
2022/07/24 12:33:33;;;;;;;7.33;4.90;;;;;;;33.83;26.97;96809.75;2099393;28;20420;-65
2022/07/24 12:34:45;;;;;;;5.70;4.40;;;;;;;33.55;27.32;96815.41;2092747;28;20440;-66
2022/07/24 12:36:17;;;;;;;9.70;6.07;;;;;;;33.36;27.40;96804.41;2096952;28;20428;-65
2022/07/24 12:37:21;;;;;;;9.30;6.30;;;;;;;33.27;27.87;96794.81;2100147;28;20462;-66
2022/07/24 12:38:27;;;;;;;6.83;5.00;;;;;;;33.56;27.60;96800.84;2101907;28;21140;-65
2022/07/24 12:39:28;;;;;;;11.50;5.23;;;;;;;33.53;27.59;96804.81;2100944;28;20424;-65
2022/07/24 12:40:33;;;;;;;8.17;5.40;;;;;;;33.20;27.45;96796.69;2099814;28;20926;-65
2022/07/24 12:41:43;;;;;;;6.07;4.90;;;;;;;34.08;27.25;96800.94;2096442;28;20426;-66
2022/07/24 12:43:01;;;;;;;10.13;5.30;;;;;;;33.40;28.28;96795.88;2106542;28;20514;-65
2022/07/24 12:44:05;;;;;;;7.10;5.43;;;;;;;34.49;27.15;96788.88;2107077;28;20476;-65
2022/07/24 12:45:08;;;;;;;6.70;5.57;;;;;;;33.43;28.00;96788.16;2108555;28;20434;-67
2022/07/24 12:46:11;;;;;;;8.43;4.93;;;;;;;34.61;26.82;96786.28;2110491;28;20431;-64
2022/07/24 12:47:12;;;;;;;9.40;5.17;;;;;;;35.33;25.86;96790.56;2109458;28;20457;-65
2022/07/24 12:48:21;;;;;;;13.30;5.57;;;;;;;35.72;24.81;96790.41;2106245;28;20427;-65
2022/07/24 12:49:22;;;;;;;6.80;4.40;;;;;;;35.39;25.50;96787.00;2105442;28;20929;-65
2022/07/24 12:50:24;;;;;;;6.90;5.17;;;;;;;35.50;24.76;96792.72;2106727;28;20427;-66
2022/07/24 12:51:52;;;;;;;8.63;5.33;;;;;;;35.38;24.68;96782.63;2106094;28;20459;-65
2022/07/24 12:53:06;;;;;;;7.40;5.30;;;;;;;35.60;25.39;96776.75;2107690;28;20446;-65
2022/07/24 12:54:07;;;;;;;7.80;5.40;;;;;;;35.61;24.95;96786.56;2110418;28;20428;-64
2022/07/24 12:55:20;;;;;;;5.50;4.90;;;;;;;35.79;24.53;96781.13;2110985;28;20961;-65
2022/07/24 12:56:21;;;;;;;9.30;5.40;;;;;;;35.92;25.07;96782.91;2110208;28;20767;-65
2022/07/24 12:57:23;;;;;;;6.20;4.80;;;;;;;34.91;25.17;96776.75;2111101;28;20455;-65
2022/07/24 12:58:51;;;;;;;6.23;5.03;;;;;;;34.71;25.20;96780.38;2110652;28;20587;-66
2022/07/24 13:00:01;;;;;;;8.60;5.20;;;;;;;34.80;25.23;96773.63;2098129;28;20425;-64
2022/07/24 13:01:03;;;;;;;8.23;5.50;;;;;;;34.69;25.51;96778.94;2098138;28;20431;-65
2022/07/24 13:02:11;;;;;;;6.10;5.50;;;;;;;34.75;25.81;96775.34;2105848;28;21021;-65
2022/07/24 13:03:12;;;;;;;7.60;5.80;;;;;;;34.03;26.48;96779.06;2106180;28;20419;-65
2022/07/24 13:04:16;;;;;;;5.10;4.60;;;;;;;34.48;26.01;96762.81;2108558;28;20493;-65
2022/07/24 13:05:40;;;;;;;7.27;4.67;;;;;;;34.86;25.71;96771.97;2110863;28;20893;-65
2022/07/24 13:06:46;;;;;;;8.10;5.43;;;;;;;35.60;25.51;96771.31;2112278;28;20422;-65
2022/07/24 13:07:51;;;;;;;11.70;4.70;;;;;;;35.21;25.75;96766.06;2109688;28;20994;-65
2022/07/24 13:08:53;;;;;;;6.70;4.50;;;;;;;35.20;26.11;96766.25;2108192;28;20431;-66
2022/07/24 13:09:55;;;;;;;8.57;5.27;;;;;;;36.14;25.03;96771.56;2107695;28;20430;-65
2022/07/24 13:10:57;;;;;;;7.50;4.70;;;;;;;36.53;24.50;96774.84;2108650;28;21081;-64
2022/07/24 13:11:58;;;;;;;6.80;4.60;;;;;;;36.67;24.18;96766.47;2109435;28;20902;-63
2022/07/24 13:13:00;;;;;;;12.23;5.10;;;;;;;37.22;23.80;96770.84;2108672;28;20969;-64
2022/07/24 13:14:03;;;;;;;6.03;4.90;;;;;;;37.36;23.62;96760.59;2108541;28;20423;-64
2022/07/24 13:15:08;;;;;;;7.30;4.60;;;;;;;36.87;23.71;96758.84;2106163;28;20944;-63
2022/07/24 13:16:09;;;;;;;9.83;4.30;;;;;;;37.07;23.79;96763.13;2109381;28;20430;-63
2022/07/24 13:17:16;;;;;;;22.70;20.37;;;;;;;37.13;23.25;96756.75;2110615;28;21410;-64